Weather at Şanlıurfa Airport [CLOSED]

Public forecast

Using degrees Celsius for public forecast. Weather courtesy of forecast.io.

Closest aviation weather report (METAR) to Şanlıurfa Airport

Closest report is Şanlıurfa GAP Airport, 21.2 nm (39.3 km) N.

2023/02/03 19:20 (retrieved 37 minutes ago)

LTCS 031920Z 14006KT CAVOK 01/M03 Q1021 RMK RWY22 13007KT 3CI180

Closest aviation forecast (TAF) to Şanlıurfa Airport

Closest forecast is Şanlıurfa GAP Airport, 21.2 nm (39.3 km) N.

2023/02/03 18:00 (retrieved 2 hours ago)

TAF LTCS 031640Z 0318/0418 VRB02KT 9999 FEW040 SCT100 BECMG 0320/0324 BKN040 OVC100 BECMG 0401/0404 2000 -SN BR SCT008 BKN030 OVC080 PROB40 TEMPO 0405/0408 04015KT 0800 SN BLSN PROB40 TEMPO 0408/0412 04015KT 0800 SN BLSN